Time;durP1;ratioP1;P1;durP2;ratioP2;P2;SDS_P1;SDS_P2;PMS_P1;PMS_P2;Temp;Humidity;BMP_temperature;BMP_pressure;BME280_temperature;BME280_humidity;BME280_pressure;Samples;Min_cycle;Max_cycle;Signal;HPM_P1;HPM_P2
2023/10/21 00:01:05;;;;;;;;;;;;;;;;;;5091359;28;19931;-67
2023/10/21 00:03:31;;;;;;;;;;;;;;;;;;5091314;28;20390;-66
2023/10/21 00:05:57;;;;;;;;;;;;;;;;;;5073055;28;19948;-65
2023/10/21 00:08:23;;;;;;;;;;;;;;;;;;5091312;28;19928;-65
2023/10/21 00:10:48;;;;;;;;;;;;;;;;;;5091337;28;20297;-65
2023/10/21 00:13:14;;;;;;;;;;;;;;;;;;5073075;28;19920;-65
2023/10/21 00:15:40;;;;;;;;;;;;;;;;;;5091106;28;19920;-65
2023/10/21 00:18:06;;;;;;;;;;;;;;;;;;5060292;28;20496;-65
2023/10/21 00:20:32;;;;;;;;;;;;;;;;;;5071605;28;19924;-66
2023/10/21 00:22:58;;;;;;;;;;;;;;;;;;5071541;28;19921;-65
2023/10/21 00:25:24;;;;;;;;;;;;;;;;;;5053474;28;19972;-65
2023/10/21 00:27:50;;;;;;;;;;;;;;;;;;5053398;28;20013;-65
2023/10/21 00:30:16;;;;;;;;;;;;;;;;;;5071866;28;19925;-65
2023/10/21 00:32:42;;;;;;;;;;;;;;;;;;5071639;28;19920;-65
2023/10/21 00:35:07;;;;;;;;;;;;;;;;;;5053600;28;19921;-65
2023/10/21 00:37:33;;;;;;;;;;;;;;;;;;5053362;28;19963;-66
2023/10/21 00:39:59;;;;;;;;;;;;;;;;;;5071598;28;19924;-66
2023/10/21 00:42:25;;;;;;;;;;;;;;;;;;5071657;28;19959;-66
2023/10/21 00:44:51;;;;;;;;;;;;;;;;;;5071706;28;19978;-66
2023/10/21 00:47:17;;;;;;;;;;;;;;;;;;5071372;28;19932;-67
2023/10/21 00:49:43;;;;;;;;;;;;;;;;;;5075552;28;19931;-66
2023/10/21 00:52:10;;;;;;;;;;;;;;;;;;5076237;28;19920;-66
2023/10/21 00:54:36;;;;;;;;;;;;;;;;;;5077571;28;20636;-66
2023/10/21 00:57:01;;;;;;;;;;;;;;;;;;5095552;28;19924;-66
2023/10/21 00:59:27;;;;;;;;;;;;;;;;;;5095782;28;19927;-65
2023/10/21 01:01:53;;;;;;;;;;;;;;;;;;5077108;28;19927;-65
2023/10/21 01:04:19;;;;;;;;;;;;;;;;;;5095370;28;19924;-65
2023/10/21 01:06:45;;;;;;;;;;;;;;;;;;5076982;28;20320;-65
2023/10/21 01:09:15;;;;;;;;;;;;;;;;;;5095453;28;19920;-65
2023/10/21 01:11:41;;;;;;;;;;;;;;;;;;5060358;28;19920;-65
2023/10/21 01:14:07;;;;;;;;;;;;;;;;;;5095383;28;19928;-65
2023/10/21 01:16:33;;;;;;;;;;;;;;;;;;5094756;28;19924;-65
2023/10/21 01:18:59;;;;;;;;;;;;;;;;;;5074809;28;19921;-65
2023/10/21 01:21:25;;;;;;;;;;;;;;;;;;5056799;28;20292;-65
2023/10/21 01:23:52;;;;;;;;;;;;;;;;;;5056679;28;20003;-65
2023/10/21 01:26:18;;;;;;;;;;;;;;;;;;5074831;28;19928;-65
2023/10/21 01:28:45;;;;;;;;;;;;;;;;;;5074729;28;19920;-65
2023/10/21 01:31:11;;;;;;;;;;;;;;;;;;5074874;28;19921;-64
2023/10/21 01:33:36;;;;;;;;;;;;;;;;;;5056476;28;19933;-65
2023/10/21 01:36:02;;;;;;;;;;;;;;;;;;5074581;28;20339;-65
2023/10/21 01:38:28;;;;;;;;;;;;;;;;;;5039803;28;19921;-65
2023/10/21 01:40:54;;;;;;;;;;;;;;;;;;5074668;28;19920;-65
2023/10/21 01:43:20;;;;;;;;;;;;;;;;;;5056330;28;19974;-65
2023/10/21 01:45:46;;;;;;;;;;;;;;;;;;5074620;28;19921;-65
2023/10/21 01:48:12;;;;;;;;;;;;;;;;;;5074259;28;20384;-65
2023/10/21 01:50:38;;;;;;;;;;;;;;;;;;5074250;28;19924;-65
2023/10/21 01:53:05;;;;;;;;;;;;;;;;;;5064656;28;20385;-65
2023/10/21 01:55:31;;;;;;;;;;;;;;;;;;5094649;28;20011;-65
2023/10/21 01:57:57;;;;;;;;;;;;;;;;;;5094227;28;20527;-66
2023/10/21 02:00:23;;;;;;;;;;;;;;;;;;5093582;28;20068;-65
2023/10/21 02:02:50;;;;;;;;;;;;;;;;;;5094360;28;19987;-65
2023/10/21 02:05:16;;;;;;;;;;;;;;;;;;5094487;28;19928;-65
2023/10/21 02:07:42;;;;;;;;;;;;;;;;;;5094174;28;19931;-65
2023/10/21 02:10:08;;;;;;;;;;;;;;;;;;5094310;28;19920;-65
2023/10/21 02:12:34;;;;;;;;;;;;;;;;;;5094359;28;19981;-65
2023/10/21 02:15:00;;;;;;;;;;;;;;;;;;5093933;28;19942;-65
2023/10/21 02:17:26;;;;;;;;;;;;;;;;;;5086366;28;19920;-65
2023/10/21 02:19:52;;;;;;;;;;;;;;;;;;5073858;28;19958;-65
2023/10/21 02:22:18;;;;;;;;;;;;;;;;;;5055730;28;19932;-65
2023/10/21 02:24:43;;;;;;;;;;;;;;;;;;5073495;28;20317;-66
2023/10/21 02:27:12;;;;;;;;;;;;;;;;;;5073631;28;20443;-65
2023/10/21 02:29:38;;;;;;;;;;;;;;;;;;5073429;28;19931;-65
2023/10/21 02:32:04;;;;;;;;;;;;;;;;;;5055732;28;19925;-65
2023/10/21 02:34:30;;;;;;;;;;;;;;;;;;5055661;28;20549;-65
2023/10/21 02:36:56;;;;;;;;;;;;;;;;;;5055666;28;19959;-65
2023/10/21 02:39:22;;;;;;;;;;;;;;;;;;5076995;23;19931;-59
2023/10/21 02:41:48;;;;;;;;;;;;;;;;;;5052938;28;19925;-59
2023/10/21 02:44:14;;;;;;;;;;;;;;;;;;5035278;28;19928;-60
2023/10/21 02:46:40;;;;;;;;;;;;;;;;;;5035597;28;19947;-60
2023/10/21 02:49:06;;;;;;;;;;;;;;;;;;5052998;28;20358;-60
2023/10/21 02:51:32;;;;;;;;;;;;;;;;;;5053191;28;19925;-60
2023/10/21 02:53:58;;;;;;;;;;;;;;;;;;5068950;28;19928;-60
2023/10/21 02:56:24;;;;;;;;;;;;;;;;;;5067365;28;19921;-60
2023/10/21 02:58:49;;;;;;;;;;;;;;;;;;5035114;28;20346;-60
2023/10/21 03:01:15;;;;;;;;;;;;;;;;;;5053059;28;19931;-60
2023/10/21 03:03:41;;;;;;;;;;;;;;;;;;5035358;28;19995;-60
2023/10/21 03:06:08;;;;;;;;;;;;;;;;;;5053009;28;20008;-60
2023/10/21 03:08:34;;;;;;;;;;;;;;;;;;5053011;28;19939;-60
2023/10/21 03:11:00;;;;;;;;;;;;;;;;;;5052744;28;19921;-60
2023/10/21 03:13:26;;;;;;;;;;;;;;;;;;5034536;28;20344;-59
2023/10/21 03:15:52;;;;;;;;;;;;;;;;;;5052789;28;19972;-60
2023/10/21 03:18:18;;;;;;;;;;;;;;;;;;5052840;28;19962;-60
2023/10/21 03:20:44;;;;;;;;;;;;;;;;;;5052811;28;20378;-60
2023/10/21 03:23:11;;;;;;;;;;;;;;;;;;5052686;28;19921;-60
2023/10/21 03:25:36;;;;;;;;;;;;;;;;;;5052589;28;19925;-60
2023/10/21 03:28:02;;;;;;;;;;;;;;;;;;5052849;28;19971;-60
2023/10/21 03:30:28;;;;;;;;;;;;;;;;;;5052315;28;19943;-60
2023/10/21 03:32:55;;;;;;;;;;;;;;;;;;5052697;28;19925;-60
2023/10/21 03:35:20;;;;;;;;;;;;;;;;;;5052475;28;19921;-60
2023/10/21 03:37:46;;;;;;;;;;;;;;;;;;5052501;28;19927;-60
2023/10/21 03:40:12;;;;;;;;;;;;;;;;;;5030940;28;20359;-60
2023/10/21 03:42:38;;;;;;;;;;;;;;;;;;5032551;28;19936;-60
2023/10/21 03:45:04;;;;;;;;;;;;;;;;;;5032309;28;19987;-60
2023/10/21 03:47:30;;;;;;;;;;;;;;;;;;5032269;28;19925;-60
2023/10/21 03:49:56;;;;;;;;;;;;;;;;;;5032283;28;20420;-60
2023/10/21 03:52:22;;;;;;;;;;;;;;;;;;5035028;28;19925;-60
2023/10/21 03:54:48;;;;;;;;;;;;;;;;;;5052029;28;19921;-60
2023/10/21 03:57:14;;;;;;;;;;;;;;;;;;5052320;28;20424;-60
2023/10/21 03:59:39;;;;;;;;;;;;;;;;;;5051945;28;19956;-60
2023/10/21 04:02:05;;;;;;;;;;;;;;;;;;5052225;28;20031;-60
2023/10/21 04:04:31;;;;;;;;;;;;;;;;;;5052001;28;19920;-60
2023/10/21 04:06:57;;;;;;;;;;;;;;;;;;5052077;28;19932;-60
2023/10/21 04:09:25;;;;;;;;;;;;;;;;;;5050657;28;20263;-60
2023/10/21 04:11:51;;;;;;;;;;;;;;;;;;5052125;28;19928;-60
2023/10/21 04:14:16;;;;;;;;;;;;;;;;;;5051806;28;19925;-59
2023/10/21 04:16:44;;;;;;;;;;;;;;;;;;5050198;28;20570;-60
2023/10/21 04:19:10;;;;;;;;;;;;;;;;;;5031843;28;20393;-60
2023/10/21 04:21:36;;;;;;;;;;;;;;;;;;5013984;28;19925;-60
2023/10/21 04:24:03;;;;;;;;;;;;;;;;;;5031583;28;20342;-60
2023/10/21 04:26:29;;;;;;;;;;;;;;;;;;5031776;28;19925;-60
2023/10/21 04:28:55;;;;;;;;;;;;;;;;;;5031828;28;19993;-60
2023/10/21 04:31:21;;;;;;;;;;;;;;;;;;5030500;28;19982;-60
2023/10/21 04:33:46;;;;;;;;;;;;;;;;;;5032059;28;19921;-60
2023/10/21 04:36:12;;;;;;;;;;;;;;;;;;5031205;28;19931;-60
2023/10/21 04:38:38;;;;;;;;;;;;;;;;;;5030183;28;19932;-60
2023/10/21 04:41:04;;;;;;;;;;;;;;;;;;5050791;28;19928;-61
2023/10/21 04:43:30;;;;;;;;;;;;;;;;;;5050647;28;20425;-62
2023/10/21 04:45:56;;;;;;;;;;;;;;;;;;5050354;28;19925;-60
2023/10/21 04:48:22;;;;;;;;;;;;;;;;;;5051463;28;19936;-60
2023/10/21 04:50:48;;;;;;;;;;;;;;;;;;5051698;28;19921;-59
2023/10/21 04:53:14;;;;;;;;;;;;;;;;;;5061272;28;19950;-59
2023/10/21 04:55:39;;;;;;;;;;;;;;;;;;5067779;28;20518;-59
2023/10/21 04:58:06;;;;;;;;;;;;;;;;;;5017111;28;19972;-59
2023/10/21 05:00:32;;;;;;;;;;;;;;;;;;5051520;28;19920;-59
2023/10/21 05:02:58;;;;;;;;;;;;;;;;;;5051625;28;19925;-59
2023/10/21 05:05:24;;;;;;;;;;;;;;;;;;5051400;28;19921;-59
2023/10/21 05:07:50;;;;;;;;;;;;;;;;;;5051446;28;19932;-59
2023/10/21 05:10:18;;;;;;;;;;;;;;;;;;5033509;28;19927;-59
2023/10/21 05:12:43;;;;;;;;;;;;;;;;;;5051446;28;19937;-59
2023/10/21 05:15:09;;;;;;;;;;;;;;;;;;5051616;28;19943;-59
2023/10/21 05:17:35;;;;;;;;;;;;;;;;;;5016919;28;19928;-59
2023/10/21 05:20:01;;;;;;;;;;;;;;;;;;5051485;28;19921;-59
2023/10/21 05:22:28;;;;;;;;;;;;;;;;;;5033249;28;19948;-59
2023/10/21 05:24:55;;;;;;;;;;;;;;;;;;5051317;28;19964;-59
2023/10/21 05:27:21;;;;;;;;;;;;;;;;;;5051202;28;19967;-59
2023/10/21 05:29:47;;;;;;;;;;;;;;;;;;5051415;28;19928;-59
2023/10/21 05:32:14;;;;;;;;;;;;;;;;;;5051258;28;19981;-59
2023/10/21 05:34:40;;;;;;;;;;;;;;;;;;5051998;28;19924;-59
2023/10/21 05:37:06;;;;;;;;;;;;;;;;;;5036787;28;19921;-59
2023/10/21 05:39:32;;;;;;;;;;;;;;;;;;5054447;28;19932;-59
2023/10/21 05:41:58;;;;;;;;;;;;;;;;;;5054339;28;20440;-59
2023/10/21 05:44:24;;;;;;;;;;;;;;;;;;5053812;28;20008;-59
2023/10/21 05:46:51;;;;;;;;;;;;;;;;;;5053772;28;19925;-60
2023/10/21 05:49:18;;;;;;;;;;;;;;;;;;5053981;28;19925;-59
2023/10/21 05:51:44;;;;;;;;;;;;;;;;;;5053280;28;20019;-59
2023/10/21 05:54:10;;;;;;;;;;;;;;;;;;5070650;28;20027;-60
2023/10/21 05:56:35;;;;;;;;;;;;;;;;;;5073441;28;20464;-60
2023/10/21 05:59:04;;;;;;;;;;;;;;;;;;5073661;28;19924;-60
2023/10/21 06:01:29;;;;;;;;;;;;;;;;;;5055174;28;19924;-60
2023/10/21 06:03:55;;;;;;;;;;;;;;;;;;5073588;28;19924;-60
2023/10/21 06:06:22;;;;;;;;;;;;;;;;;;5056075;28;20346;-60
2023/10/21 06:08:48;;;;;;;;;;;;;;;;;;5073823;28;19928;-60
2023/10/21 06:11:14;;;;;;;;;;;;;;;;;;5074223;28;19974;-60
2023/10/21 06:13:40;;;;;;;;;;;;;;;;;;5056246;28;19921;-60
2023/10/21 06:16:06;;;;;;;;;;;;;;;;;;5074218;28;20431;-60
2023/10/21 06:18:32;;;;;;;;;;;;;;;;;;5057124;28;19971;-59
2023/10/21 06:20:58;;;;;;;;;;;;;;;;;;5053970;28;19927;-59
2023/10/21 06:23:24;;;;;;;;;;;;;;;;;;5053607;28;20262;-59
2023/10/21 06:25:50;;;;;;;;;;;;;;;;;;5053380;28;19925;-59
2023/10/21 06:28:16;;;;;;;;;;;;;;;;;;5053478;28;19924;-59
2023/10/21 06:30:42;;;;;;;;;;;;;;;;;;5053725;28;19925;-59
2023/10/21 06:33:10;;;;;;;;;;;;;;;;;;5053469;28;20043;-59
2023/10/21 06:35:37;;;;;;;;;;;;;;;;;;5053565;28;20015;-59
2023/10/21 06:38:04;;;;;;;;;;;;;;;;;;5053585;28;19921;-59
2023/10/21 06:40:30;;;;;;;;;;;;;;;;;;5053234;28;19925;-59
2023/10/21 06:42:56;;;;;;;;;;;;;;;;;;5035342;28;20007;-59
2023/10/21 06:45:22;;;;;;;;;;;;;;;;;;5053071;28;20011;-59
2023/10/21 06:47:48;;;;;;;;;;;;;;;;;;5053121;28;19959;-59
2023/10/21 06:50:14;;;;;;;;;;;;;;;;;;5053183;28;19924;-59
2023/10/21 06:52:40;;;;;;;;;;;;;;;;;;5039647;28;19920;-59
2023/10/21 06:55:06;;;;;;;;;;;;;;;;;;5072425;28;19920;-59
2023/10/21 06:57:32;;;;;;;;;;;;;;;;;;5072546;28;19932;-59
2023/10/21 06:59:57;;;;;;;;;;;;;;;;;;5072493;28;20301;-59
2023/10/21 07:02:23;;;;;;;;;;;;;;;;;;5072064;28;19920;-59
2023/10/21 07:04:50;;;;;;;;;;;;;;;;;;5071794;28;19929;-60
2023/10/21 07:07:15;;;;;;;;;;;;;;;;;;5053526;28;19928;-60
2023/10/21 07:09:41;;;;;;;;;;;;;;;;;;5054120;28;19920;-60
2023/10/21 07:12:07;;;;;;;;;;;;;;;;;;5068838;28;20023;-60
2023/10/21 07:14:33;;;;;;;;;;;;;;;;;;5033824;28;20484;-60
2023/10/21 07:17:00;;;;;;;;;;;;;;;;;;5052440;28;19924;-60
2023/10/21 07:19:26;;;;;;;;;;;;;;;;;;5052564;28;20020;-60
2023/10/21 07:21:51;;;;;;;;;;;;;;;;;;5034587;28;20402;-60
2023/10/21 07:24:17;;;;;;;;;;;;;;;;;;5034615;28;19951;-60
2023/10/21 07:26:43;;;;;;;;;;;;;;;;;;5052638;28;19924;-59
2023/10/21 07:29:09;;;;;;;;;;;;;;;;;;5034513;28;20382;-59
2023/10/21 07:31:35;;;;;;;;;;;;;;;;;;5052670;28;19925;-59
2023/10/21 07:34:01;;;;;;;;;;;;;;;;;;5052395;28;19925;-59
2023/10/21 07:36:27;;;;;;;;;;;;;;;;;;5052647;28;20445;-59
2023/10/21 07:38:53;;;;;;;;;;;;;;;;;;5052062;28;19928;-60
2023/10/21 07:41:19;;;;;;;;;;;;;;;;;;5052472;28;19928;-59
2023/10/21 07:43:45;;;;;;;;;;;;;;;;;;5052148;28;20015;-59
2023/10/21 07:46:11;;;;;;;;;;;;;;;;;;5052021;28;20019;-59
2023/10/21 07:48:37;;;;;;;;;;;;;;;;;;5052200;28;19925;-59
2023/10/21 07:51:03;;;;;;;;;;;;;;;;;;5052322;28;19939;-59
2023/10/21 07:53:29;;;;;;;;;;;;;;;;;;5063689;28;19920;-59
2023/10/21 07:55:55;;;;;;;;;;;;;;;;;;5071464;28;19977;-59
2023/10/21 07:58:22;;;;;;;;;;;;;;;;;;5070433;28;20393;-61
2023/10/21 08:00:48;;;;;;;;;;;;;;;;;;5052976;28;20023;-61
2023/10/21 08:03:14;;;;;;;;;;;;;;;;;;5053033;28;20398;-59
2023/10/21 08:05:40;;;;;;;;;;;;;;;;;;5052876;28;20015;-60
2023/10/21 08:08:06;;;;;;;;;;;;;;;;;;5071948;28;19959;-59
2023/10/21 08:10:32;;;;;;;;;;;;;;;;;;5054154;28;19959;-59
2023/10/21 08:12:58;;;;;;;;;;;;;;;;;;5071802;28;19973;-59
2023/10/21 08:15:24;;;;;;;;;;;;;;;;;;5053764;28;19929;-59
2023/10/21 08:17:50;;;;;;;;;;;;;;;;;;5026214;28;20317;-59
2023/10/21 08:20:17;;;;;;;;;;;;;;;;;;5034068;28;19929;-59
2023/10/21 08:22:43;;;;;;;;;;;;;;;;;;5051627;28;20282;-59
2023/10/21 08:25:09;;;;;;;;;;;;;;;;;;5033734;28;19928;-59
2023/10/21 08:27:36;;;;;;;;;;;;;;;;;;5051889;28;19935;-59
2023/10/21 08:30:02;;;;;;;;;;;;;;;;;;5033851;28;19943;-59
2023/10/21 08:32:28;;;;;;;;;;;;;;;;;;5051661;28;19928;-59
2023/10/21 08:34:54;;;;;;;;;;;;;;;;;;5051375;28;19925;-59
2023/10/21 08:37:20;;;;;;;;;;;;;;;;;;5051844;28;19924;-59
2023/10/21 08:39:48;;;;;;;;;;;;;;;;;;5051390;28;19966;-59
2023/10/21 08:42:14;;;;;;;;;;;;;;;;;;5051612;28;19921;-59
2023/10/21 08:44:40;;;;;;;;;;;;;;;;;;5051337;28;20306;-59
2023/10/21 08:47:06;;;;;;;;;;;;;;;;;;5033442;28;19924;-59
2023/10/21 08:49:32;;;;;;;;;;;;;;;;;;5051567;28;20262;-59
2023/10/21 08:51:58;;;;;;;;;;;;;;;;;;5033615;28;19943;-59
2023/10/21 08:54:24;;;;;;;;;;;;;;;;;;5071073;28;20381;-59
2023/10/21 08:56:50;;;;;;;;;;;;;;;;;;5071447;28;19928;-59
2023/10/21 08:59:16;;;;;;;;;;;;;;;;;;5053618;28;19970;-59
2023/10/21 09:01:42;;;;;;;;;;;;;;;;;;5053170;28;19920;-59
2023/10/21 09:04:07;;;;;;;;;;;;;;;;;;5071618;28;19959;-59
2023/10/21 09:06:33;;;;;;;;;;;;;;;;;;5071367;28;19954;-59
2023/10/21 09:08:59;;;;;;;;;;;;;;;;;;5072432;28;19921;-59
2023/10/21 09:11:25;;;;;;;;;;;;;;;;;;5075342;28;19931;-59
2023/10/21 09:13:52;;;;;;;;;;;;;;;;;;5057095;28;20384;-59
2023/10/21 09:16:21;;;;;;;;;;;;;;;;;;5075130;28;19924;-59
2023/10/21 09:18:47;;;;;;;;;;;;;;;;;;5056112;28;20374;-59
2023/10/21 09:21:13;;;;;;;;;;;;;;;;;;5054994;28;19925;-59
2023/10/21 09:23:39;;;;;;;;;;;;;;;;;;5036963;28;19932;-60
2023/10/21 09:26:04;;;;;;;;;;;;;;;;;;5054845;28;19924;-59
2023/10/21 09:28:30;;;;;;;;;;;;;;;;;;5054848;28;19925;-59
2023/10/21 09:30:57;;;;;;;;;;;;;;;;;;5036689;28;19920;-60
2023/10/21 09:33:23;;;;;;;;;;;;;;;;;;5036824;28;20012;-59
2023/10/21 09:35:49;;;;;;;;;;;;;;;;;;5036637;28;20012;-59
2023/10/21 09:38:16;;;;;;;;;;;;;;;;;;5054761;28;19925;-59
2023/10/21 09:40:42;;;;;;;;;;;;;;;;;;5054300;28;19931;-59
2023/10/21 09:43:07;;;;;;;;;;;;;;;;;;5054554;28;19921;-59
2023/10/21 09:45:34;;;;;;;;;;;;;;;;;;5054267;28;19925;-59
2023/10/21 09:48:00;;;;;;;;;;;;;;;;;;5054485;28;19982;-59
2023/10/21 09:50:26;;;;;;;;;;;;;;;;;;5054405;28;19921;-59
2023/10/21 09:52:51;;;;;;;;;;;;;;;;;;5060928;28;19924;-59
2023/10/21 09:55:18;;;;;;;;;;;;;;;;;;5074520;28;19939;-60
2023/10/21 09:57:44;;;;;;;;;;;;;;;;;;5074107;28;19924;-60
2023/10/21 10:00:10;;;;;;;;;;;;;;;;;;5073777;28;19920;-60
2023/10/21 10:02:36;;;;;;;;;;;;;;;;;;5073391;28;19931;-60
2023/10/21 10:05:06;;;;;;;;;;;;;;;;;;5073822;28;19921;-60
2023/10/21 10:07:33;;;;;;;;;;;;;;;;;;5073087;28;19924;-60
2023/10/21 10:09:59;;;;;;;;;;;;;;;;;;5072995;28;19971;-60
2023/10/21 10:12:25;;;;;;;;;;;;;;;;;;5054798;28;20325;-60
2023/10/21 10:14:54;;;;;;;;;;;;;;;;;;5054911;28;19924;-60
2023/10/21 10:17:20;;;;;;;;;;;;;;;;;;5066191;28;19921;-60
2023/10/21 10:19:46;;;;;;;;;;;;;;;;;;5034653;28;20051;-60
2023/10/21 10:22:12;;;;;;;;;;;;;;;;;;5053407;28;20282;-60
2023/10/21 10:24:38;;;;;;;;;;;;;;;;;;5054000;28;19931;-60
2023/10/21 10:27:05;;;;;;;;;;;;;;;;;;5053562;28;19928;-60
2023/10/21 10:29:30;;;;;;;;;;;;;;;;;;5053880;28;19920;-60
2023/10/21 10:31:56;;;;;;;;;;;;;;;;;;5053687;28;20442;-60
2023/10/21 10:34:22;;;;;;;;;;;;;;;;;;5035652;28;19921;-60
2023/10/21 10:36:48;;;;;;;;;;;;;;;;;;5035694;28;19921;-60
2023/10/21 10:39:14;;;;;;;;;;;;;;;;;;5053497;28;20636;-60
2023/10/21 10:41:40;;;;;;;;;;;;;;;;;;5035474;28;19983;-60
2023/10/21 10:44:06;;;;;;;;;;;;;;;;;;5053672;28;19921;-60
2023/10/21 10:46:36;;;;;;;;;;;;;;;;;;5053179;28;19921;-60
2023/10/21 10:49:05;;;;;;;;;;;;;;;;;;5053536;28;19935;-60
2023/10/21 10:51:31;;;;;;;;;;;;;;;;;;5053463;28;19959;-60
2023/10/21 10:53:57;;;;;;;;;;;;;;;;;;5068729;28;19971;-60
2023/10/21 10:56:25;;;;;;;;;;;;;;;;;;5073213;28;19931;-60
2023/10/21 10:58:51;;;;;;;;;;;;;;;;;;5055074;28;19924;-60
2023/10/21 11:01:17;;;;;;;;;;;;;;;;;;5073241;28;20295;-60
2023/10/21 11:03:43;;;;;;;;;;;;;;;;;;5073089;28;19921;-60
2023/10/21 11:06:12;;;;;;;;;;;;;;;;;;5073115;28;20456;-60
2023/10/21 11:08:38;;;;;;;;;;;;;;;;;;5072904;28;19999;-60
2023/10/21 11:11:04;;;;;;;;;;;;;;;;;;5072862;28;19924;-60
2023/10/21 11:13:30;;;;;;;;;;;;;;;;;;5054606;28;20298;-60
2023/10/21 11:15:57;;;;;;;;;;;;;;;;;;5038133;28;20022;-60
2023/10/21 11:18:23;;;;;;;;;;;;;;;;;;5057376;28;19924;-60
2023/10/21 11:20:49;;;;;;;;;;;;;;;;;;5052813;28;19924;-60
2023/10/21 11:23:16;;;;;;;;;;;;;;;;;;5052610;28;19932;-60
2023/10/21 11:25:42;;;;;;;;;;;;;;;;;;5052487;28;19925;-61
2023/10/21 11:28:09;;;;;;;;;;;;;;;;;;5034199;28;19940;-58
2023/10/21 11:30:35;;;;;;;;;;;;;;;;;;5052305;28;20387;-58
2023/10/21 11:33:00;;;;;;;;;;;;;;;;;;5052491;28;19967;-59
2023/10/21 11:35:29;;;;;;;;;;;;;;;;;;5052598;28;19925;-59
2023/10/21 11:37:56;;;;;;;;;;;;;;;;;;5052086;28;19928;-59
2023/10/21 11:40:22;;;;;;;;;;;;;;;;;;5052099;28;19932;-59
2023/10/21 11:42:48;;;;;;;;;;;;;;;;;;5052263;28;19924;-59
2023/10/21 11:45:15;;;;;;;;;;;;;;;;;;5017283;28;20306;-59
2023/10/21 11:47:41;;;;;;;;;;;;;;;;;;5051687;28;19976;-59
2023/10/21 11:50:09;;;;;;;;;;;;;;;;;;5051435;28;19921;-59
2023/10/21 11:52:35;;;;;;;;;;;;;;;;;;5055746;28;19928;-59
2023/10/21 11:55:20;;;;;;;;;;;;;;;;;;5071734;28;20378;-59
2023/10/21 12:09:25;;;;;;;;;;;;;;;;;;5070996;28;19925;-60
2023/10/21 12:40:31;;;;;;;;;;;;;;;;;;5051417;28;20012;-59
2023/10/21 12:43:23;;;;;;;;;;;;;;;;;;5033951;28;20228;-59
2023/10/21 12:45:46;;;;;;;;;;;;;;;;;;5055319;28;19925;-59
2023/10/21 12:48:13;;;;;;;;;;;;;;;;;;5037610;28;19929;-59
2023/10/21 12:50:40;;;;;;;;;;;;;;;;;;5055475;28;20397;-59
2023/10/21 12:53:06;;;;;;;;;;;;;;;;;;5064426;28;19981;-60
2023/10/21 12:55:35;;;;;;;;;;;;;;;;;;5075554;28;19921;-59
2023/10/21 12:58:01;;;;;;;;;;;;;;;;;;5057765;28;19920;-59
2023/10/21 13:00:27;;;;;;;;;;;;;;;;;;5075279;28;19928;-59
2023/10/21 13:02:53;;;;;;;;;;;;;;;;;;5075311;28;20373;-59
2023/10/21 13:05:19;;;;;;;;;;;;;;;;;;5075141;28;19920;-59
2023/10/21 13:07:45;;;;;;;;;;;;;;;;;;5075370;28;19928;-60
2023/10/21 13:10:11;;;;;;;;;;;;;;;;;;5075115;28;19921;-59
2023/10/21 13:12:37;;;;;;;;;;;;;;;;;;5057086;28;19924;-60
2023/10/21 13:15:09;;;;;;;;;;;;;;;;;;5075086;28;19920;-59
2023/10/21 13:17:35;;;;;;;;;;;;;;;;;;5048246;28;20286;-61
2023/10/21 13:20:01;;;;;;;;;;;;;;;;;;5036957;28;19925;-59
2023/10/21 13:22:27;;;;;;;;;;;;;;;;;;5054890;28;20425;-60
2023/10/21 13:24:53;;;;;;;;;;;;;;;;;;5054980;28;20004;-60
2023/10/21 13:27:18;;;;;;;;;;;;;;;;;;5054934;28;19925;-60
2023/10/21 13:29:44;;;;;;;;;;;;;;;;;;5036924;28;19920;-60
2023/10/21 13:32:10;;;;;;;;;;;;;;;;;;5036761;28;20334;-60
2023/10/21 13:34:36;;;;;;;;;;;;;;;;;;5054641;28;19921;-59
2023/10/21 13:37:03;;;;;;;;;;;;;;;;;;5054884;28;19920;-59
2023/10/21 13:39:29;;;;;;;;;;;;;;;;;;5036462;28;19933;-60
2023/10/21 13:41:55;;;;;;;;;;;;;;;;;;5054792;28;19940;-59
2023/10/21 13:44:21;;;;;;;;;;;;;;;;;;5036658;28;19927;-60
2023/10/21 13:46:46;;;;;;;;;;;;;;;;;;5054370;28;20480;-59
2023/10/21 13:49:16;;;;;;;;;;;;;;;;;;5036473;28;19925;-59
2023/10/21 13:51:41;;;;;;;;;;;;;;;;;;5054378;28;20354;-60
2023/10/21 13:54:12;;;;;;;;;;;;;;;;;;5071423;28;20054;-60
2023/10/21 13:56:38;;;;;;;;;;;;;;;;;;5073045;28;19927;-59
2023/10/21 13:59:09;;;;;;;;;;;;;;;;;;5056307;28;19920;-59
2023/10/21 14:01:35;;;;;;;;;;;;;;;;;;5056132;28;20015;-59
2023/10/21 14:04:01;;;;;;;;;;;;;;;;;;5056125;28;20020;-59
2023/10/21 14:06:27;;;;;;;;;;;;;;;;;;5074251;28;20054;-59
2023/10/21 14:08:53;;;;;;;;;;;;;;;;;;5074129;28;19932;-59
2023/10/21 14:11:19;;;;;;;;;;;;;;;;;;5074171;28;20305;-59
2023/10/21 14:13:46;;;;;;;;;;;;;;;;;;5073927;28;19951;-59
2023/10/21 14:16:12;;;;;;;;;;;;;;;;;;5073826;28;20384;-59
2023/10/21 14:18:41;;;;;;;;;;;;;;;;;;5055881;28;19921;-59
2023/10/21 14:21:07;;;;;;;;;;;;;;;;;;5053113;28;20405;-59
2023/10/21 14:23:33;;;;;;;;;;;;;;;;;;5053229;28;19931;-60
2023/10/21 14:25:59;;;;;;;;;;;;;;;;;;5052849;28;19921;-60
2023/10/21 14:28:26;;;;;;;;;;;;;;;;;;5052718;28;20533;-60
2023/10/21 14:30:52;;;;;;;;;;;;;;;;;;5052502;28;19921;-60
2023/10/21 14:33:18;;;;;;;;;;;;;;;;;;5052587;28;19924;-60
2023/10/21 14:35:44;;;;;;;;;;;;;;;;;;5052753;28;19987;-60
2023/10/21 14:38:10;;;;;;;;;;;;;;;;;;5053018;28;19943;-60
2023/10/21 14:40:36;;;;;;;;;;;;;;;;;;5053187;28;19932;-60
2023/10/21 14:43:03;;;;;;;;;;;;;;;;;;5035491;28;19955;-60
2023/10/21 14:45:29;;;;;;;;;;;;;;;;;;5053220;28;20341;-60
2023/10/21 14:47:55;;;;;;;;;;;;;;;;;;5053485;28;19982;-60
2023/10/21 14:50:21;;;;;;;;;;;;;;;;;;5035371;28;19927;-59
2023/10/21 14:52:47;;;;;;;;;;;;;;;;;;5024526;28;20009;-60
2023/10/21 14:55:13;;;;;;;;;;;;;;;;;;5066807;23;19977;-62
2023/10/21 14:57:39;;;;;;;;;;;;;;;;;;5053663;28;19924;-63
2023/10/21 15:00:05;;;;;;;;;;;;;;;;;;5053392;28;19925;-63
2023/10/21 15:02:31;;;;;;;;;;;;;;;;;;5053690;28;19969;-62
2023/10/21 15:04:56;;;;;;;;;;;;;;;;;;5035172;28;19925;-63
2023/10/21 15:07:22;;;;;;;;;;;;;;;;;;5034543;28;20275;-62
2023/10/21 15:09:48;;;;;;;;;;;;;;;;;;5053195;28;19928;-63
2023/10/21 15:12:14;;;;;;;;;;;;;;;;;;5053567;28;19928;-62
2023/10/21 15:14:40;;;;;;;;;;;;;;;;;;5052880;28;20389;-62
2023/10/21 15:17:06;;;;;;;;;;;;;;;;;;5057722;28;19929;-63
2023/10/21 15:19:32;;;;;;;;;;;;;;;;;;5072938;28;20465;-63
2023/10/21 15:21:58;;;;;;;;;;;;;;;;;;5072479;28;20392;-63
2023/10/21 15:24:24;;;;;;;;;;;;;;;;;;5054632;28;19966;-62
2023/10/21 15:26:51;;;;;;;;;;;;;;;;;;5054386;28;19924;-63
2023/10/21 15:29:17;;;;;;;;;;;;;;;;;;5072262;28;19931;-63
2023/10/21 15:31:46;;;;;;;;;;;;;;;;;;5072544;28;20270;-63
2023/10/21 15:34:12;;;;;;;;;;;;;;;;;;5072301;28;20273;-63
2023/10/21 15:36:38;;;;;;;;;;;;;;;;;;5072528;28;19924;-63
2023/10/21 15:39:11;;;;;;;;;;;;;;;;;;5072491;28;19920;-62
2023/10/21 15:41:37;;;;;;;;;;;;;;;;;;5072281;28;20277;-63
2023/10/21 15:44:03;;;;;;;;;;;;;;;;;;5072476;28;19926;-62
2023/10/21 15:46:29;;;;;;;;;;;;;;;;;;5054183;28;20006;-63
2023/10/21 15:48:56;;;;;;;;;;;;;;;;;;5072230;28;19929;-62
2023/10/21 15:51:22;;;;;;;;;;;;;;;;;;5072362;28;19921;-63
2023/10/21 15:53:48;;;;;;;;;;;;;;;;;;5068047;28;20327;-63
2023/10/21 15:56:14;;;;;;;;;;;;;;;;;;5074102;28;19942;-62
2023/10/21 15:58:40;;;;;;;;;;;;;;;;;;5073990;28;19974;-63
2023/10/21 16:01:06;;;;;;;;;;;;;;;;;;5092328;28;19963;-63
2023/10/21 16:03:32;;;;;;;;;;;;;;;;;;5065321;28;20254;-63
2023/10/21 16:05:58;;;;;;;;;;;;;;;;;;5034001;28;19921;-63
2023/10/21 16:08:24;;;;;;;;;;;;;;;;;;5033770;28;19982;-63
2023/10/21 16:10:50;;;;;;;;;;;;;;;;;;5051970;28;19928;-62
2023/10/21 16:13:16;;;;;;;;;;;;;;;;;;5033906;28;20015;-63
2023/10/21 16:15:42;;;;;;;;;;;;;;;;;;5051930;28;19921;-62
2023/10/21 16:18:07;;;;;;;;;;;;;;;;;;5064254;28;20289;-63
2023/10/21 16:20:35;;;;;;;;;;;;;;;;;;5071733;28;19928;-63
2023/10/21 16:23:01;;;;;;;;;;;;;;;;;;5071198;28;20015;-63
2023/10/21 16:25:27;;;;;;;;;;;;;;;;;;5053024;28;20011;-63
2023/10/21 16:27:53;;;;;;;;;;;;;;;;;;5071314;28;19925;-62
2023/10/21 16:30:19;;;;;;;;;;;;;;;;;;5071291;28;19930;-63
2023/10/21 16:32:45;;;;;;;;;;;;;;;;;;5071341;28;19920;-63
2023/10/21 16:35:10;;;;;;;;;;;;;;;;;;5070718;28;20331;-63
2023/10/21 16:37:36;;;;;;;;;;;;;;;;;;5070847;28;19924;-63
2023/10/21 16:40:03;;;;;;;;;;;;;;;;;;5070881;28;19927;-63
2023/10/21 16:42:29;;;;;;;;;;;;;;;;;;5071174;28;19956;-63
2023/10/21 16:44:55;;;;;;;;;;;;;;;;;;5052798;28;19979;-63
2023/10/21 16:47:21;;;;;;;;;;;;;;;;;;5071357;28;19924;-63
2023/10/21 16:49:47;;;;;;;;;;;;;;;;;;5071750;28;19928;-63
2023/10/21 16:52:13;;;;;;;;;;;;;;;;;;5072840;28;20508;-63
2023/10/21 16:54:40;;;;;;;;;;;;;;;;;;5073374;28;19924;-63
2023/10/21 16:57:06;;;;;;;;;;;;;;;;;;5091736;28;19935;-63
2023/10/21 16:59:32;;;;;;;;;;;;;;;;;;5091809;28;19920;-63
2023/10/21 17:01:58;;;;;;;;;;;;;;;;;;5091775;28;19920;-63
2023/10/21 17:04:25;;;;;;;;;;;;;;;;;;5091848;28;19931;-62
2023/10/21 17:06:51;;;;;;;;;;;;;;;;;;5091669;28;19920;-62
2023/10/21 17:09:17;;;;;;;;;;;;;;;;;;5091663;28;20323;-63
2023/10/21 17:11:43;;;;;;;;;;;;;;;;;;5066471;28;19925;-63
2023/10/21 17:14:09;;;;;;;;;;;;;;;;;;5051388;28;19974;-63
2023/10/21 17:16:35;;;;;;;;;;;;;;;;;;5051825;28;19970;-63
2023/10/21 17:19:00;;;;;;;;;;;;;;;;;;5071235;28;20312;-63